createdAt,value
2023-05-25T00:01:22.916Z,44.60
2023-05-25T00:03:49.934Z,44.40
2023-05-25T00:06:18.337Z,44.40
2023-05-25T00:08:45.176Z,44.50
2023-05-25T00:11:12.003Z,44.40
2023-05-25T00:13:39.652Z,44.20
2023-05-25T00:16:07.173Z,43.90
2023-05-25T00:18:33.996Z,44.00
2023-05-25T00:21:00.821Z,44.10
2023-05-25T00:23:28.927Z,44.40
2023-05-25T00:25:55.778Z,44.20
2023-05-25T00:28:22.632Z,44.00
2023-05-25T00:30:50.126Z,44.00
2023-05-25T00:33:17.499Z,43.90
2023-05-25T00:35:44.769Z,43.70
2023-05-25T00:38:13.635Z,43.80
2023-05-25T00:40:41.985Z,43.80
2023-05-25T00:43:09.440Z,43.90
2023-05-25T00:45:36.571Z,43.30
2023-05-25T00:48:04.250Z,43.60
2023-05-25T00:50:37.856Z,44.40
2023-05-25T00:53:05.167Z,43.70
2023-05-25T00:55:36.039Z,43.70
2023-05-25T00:58:05.053Z,43.70
2023-05-25T01:00:33.609Z,43.80
2023-05-25T01:03:04.542Z,43.70
2023-05-25T01:05:33.160Z,43.60
2023-05-25T01:08:02.748Z,43.70
2023-05-25T01:10:32.351Z,43.60
2023-05-25T01:13:00.440Z,43.60
2023-05-25T01:15:29.742Z,43.50
2023-05-25T01:17:57.567Z,43.70
2023-05-25T01:20:24.523Z,43.50
2023-05-25T01:22:57.223Z,43.60
2023-05-25T01:25:28.777Z,43.50
2023-05-25T01:28:00.375Z,43.50
2023-05-25T01:30:30.612Z,43.30
2023-05-25T01:32:57.668Z,43.60
2023-05-25T01:35:25.305Z,43.60
2023-05-25T01:37:53.707Z,43.40
2023-05-25T01:40:20.482Z,43.50
2023-05-25T01:42:47.349Z,43.30
2023-05-25T01:45:14.878Z,43.30
2023-05-25T01:47:48.292Z,43.30
2023-05-25T01:50:22.318Z,43.30
2023-05-25T01:52:56.065Z,43.30
2023-05-25T01:55:27.160Z,43.30
2023-05-25T01:57:56.356Z,43.10
2023-05-25T02:00:24.584Z,43.30
2023-05-25T02:02:52.601Z,43.30
2023-05-25T02:05:20.404Z,43.30
2023-05-25T02:07:47.210Z,43.30
2023-05-25T02:10:15.436Z,43.20
2023-05-25T02:12:42.203Z,43.30
2023-05-25T02:15:09.661Z,43.20
2023-05-25T02:17:36.434Z,43.20
2023-05-25T02:20:03.297Z,43.10
2023-05-25T02:22:30.038Z,43.20
2023-05-25T02:24:56.809Z,43.40
2023-05-25T02:27:25.054Z,43.30
2023-05-25T02:29:51.810Z,43.40
2023-05-25T02:32:18.918Z,43.50
2023-05-25T02:34:45.758Z,43.30
2023-05-25T02:37:12.824Z,43.30
2023-05-25T02:39:42.102Z,43.30
2023-05-25T02:42:08.964Z,43.30
2023-05-25T02:44:37.123Z,43.30
2023-05-25T02:47:04.449Z,43.30
2023-05-25T02:49:31.564Z,43.30
2023-05-25T02:51:58.407Z,43.30
2023-05-25T02:54:25.281Z,43.20
2023-05-25T02:56:52.201Z,43.40
2023-05-25T02:59:19.008Z,43.20
2023-05-25T03:01:47.272Z,43.00
2023-05-25T03:04:14.322Z,43.20
2023-05-25T03:06:45.804Z,43.10
2023-05-25T03:09:12.808Z,43.30
2023-05-25T03:11:39.828Z,43.20
2023-05-25T03:14:06.944Z,43.00
2023-05-25T03:16:33.791Z,43.00
2023-05-25T03:19:01.924Z,43.10
2023-05-25T03:21:28.792Z,43.20
2023-05-25T03:23:55.578Z,43.50
2023-05-25T03:26:22.334Z,43.20
2023-05-25T03:28:49.283Z,43.50
2023-05-25T03:31:16.048Z,44.30
2023-05-25T03:33:42.771Z,44.60
2023-05-25T03:36:11.529Z,44.60
2023-05-25T03:38:38.350Z,44.40
2023-05-25T03:41:05.369Z,43.90
2023-05-25T03:43:32.257Z,43.80
2023-05-25T03:45:59.085Z,43.90
2023-05-25T03:48:25.902Z,44.00
2023-05-25T03:50:53.392Z,43.80
2023-05-25T03:53:21.489Z,44.00
2023-05-25T03:55:48.320Z,44.20
2023-05-25T03:58:15.166Z,44.30
2023-05-25T04:00:42.546Z,44.50
2023-05-25T04:03:20.429Z,44.70
2023-05-25T04:06:17.381Z,45.20
2023-05-25T04:08:45.913Z,45.60
2023-05-25T04:11:12.937Z,45.80
2023-05-25T04:13:39.712Z,45.90
2023-05-25T04:16:08.658Z,46.20
2023-05-25T04:18:36.399Z,46.90
2023-05-25T04:21:03.318Z,46.70
2023-05-25T04:23:32.632Z,46.70
2023-05-25T04:26:01.018Z,46.80
2023-05-25T04:28:27.932Z,47.70
2023-05-25T04:30:54.778Z,48.50
2023-05-25T04:33:21.572Z,48.60
2023-05-25T04:35:48.494Z,48.10
2023-05-25T04:38:15.346Z,49.20
2023-05-25T04:40:57.165Z,50.10
2023-05-25T04:43:25.503Z,51.00
2023-05-25T04:45:52.538Z,51.10
2023-05-25T04:48:19.494Z,50.50
2023-05-25T04:50:49.980Z,50.80
2023-05-25T04:53:19.648Z,50.70
2023-05-25T04:55:46.856Z,51.20
2023-05-25T04:58:20.519Z,51.00
2023-05-25T05:00:49.804Z,52.30
2023-05-25T05:07:32.215Z,52.10
2023-05-25T05:09:59.040Z,51.00
2023-05-25T05:12:25.805Z,51.10
2023-05-25T05:14:52.594Z,50.80
2023-05-25T05:17:20.686Z,50.90
2023-05-25T05:19:47.409Z,51.40
2023-05-25T05:22:14.189Z,51.70
2023-05-25T05:24:40.875Z,51.70
2023-05-25T05:27:07.763Z,51.00
2023-05-25T05:29:34.530Z,51.50
2023-05-25T05:32:01.259Z,50.30
2023-05-25T05:34:29.344Z,50.80
2023-05-25T05:36:58.546Z,50.60
2023-05-25T05:39:26.085Z,51.70
2023-05-25T05:41:53.170Z,53.20
2023-05-25T05:44:20.920Z,53.10
2023-05-25T05:46:47.725Z,53.00
2023-05-25T05:49:14.513Z,53.40
2023-05-25T05:51:42.549Z,54.30
2023-05-25T05:54:09.338Z,53.30
2023-05-25T05:56:36.057Z,53.50
2023-05-25T05:59:02.785Z,53.80
2023-05-25T06:01:29.481Z,53.50
2023-05-25T06:03:56.277Z,54.20
2023-05-25T06:06:23.006Z,54.00
2023-05-25T06:08:51.036Z,54.10
2023-05-25T06:11:17.861Z,52.90
2023-05-25T06:13:45.494Z,52.00
2023-05-25T06:16:13.375Z,53.40
2023-05-25T06:18:40.149Z,53.50
2023-05-25T06:21:07.038Z,52.80
2023-05-25T06:23:33.784Z,53.60
2023-05-25T06:26:04.884Z,53.10
2023-05-25T06:28:31.909Z,53.40
2023-05-25T06:30:58.730Z,52.60
2023-05-25T06:33:25.441Z,52.40
2023-05-25T06:35:52.142Z,51.70
2023-05-25T06:38:18.861Z,51.70
2023-05-25T06:40:45.573Z,52.70
2023-05-25T06:43:13.648Z,51.60
2023-05-25T06:45:40.517Z,52.00
2023-05-25T06:48:07.364Z,52.00
2023-05-25T06:50:34.097Z,51.40
2023-05-25T06:53:00.883Z,51.70
2023-05-25T06:55:27.615Z,50.40
2023-05-25T06:57:54.290Z,50.90
2023-05-25T07:00:22.504Z,51.00
2023-05-25T07:02:49.236Z,51.10
2023-05-25T07:05:16.200Z,50.30
2023-05-25T07:07:43.061Z,50.10
2023-05-25T07:10:09.946Z,49.10
2023-05-25T07:12:36.756Z,49.40
2023-05-25T07:15:03.844Z,49.00
2023-05-25T07:17:31.970Z,48.30
2023-05-25T07:19:58.855Z,47.90
2023-05-25T07:22:25.759Z,47.90
2023-05-25T07:24:52.453Z,48.20
2023-05-25T07:27:19.216Z,48.00
2023-05-25T07:29:45.953Z,47.90
2023-05-25T07:32:12.686Z,47.60
2023-05-25T07:34:41.490Z,47.40
2023-05-25T07:37:08.239Z,47.40
2023-05-25T07:39:34.949Z,47.10
2023-05-25T07:42:01.686Z,47.40
2023-05-25T07:44:28.595Z,47.40
2023-05-25T07:46:55.325Z,47.40
2023-05-25T07:49:22.064Z,47.00
2023-05-25T07:51:50.121Z,46.80
2023-05-25T07:54:16.880Z,46.70
2023-05-25T07:56:43.642Z,47.10
2023-05-25T07:59:10.381Z,47.60
2023-05-25T08:01:37.191Z,47.70
2023-05-25T08:04:03.970Z,47.50
2023-05-25T08:06:30.730Z,47.50
2023-05-25T08:08:58.771Z,47.40
2023-05-25T08:11:25.560Z,46.80
2023-05-25T08:13:52.420Z,46.90
2023-05-25T08:16:19.287Z,46.90
2023-05-25T08:18:46.070Z,47.00
2023-05-25T08:21:13.084Z,47.10
2023-05-25T08:23:40.776Z,46.90
2023-05-25T08:26:26.055Z,46.60
2023-05-25T08:28:55.621Z,46.80
2023-05-25T08:31:22.479Z,46.60
2023-05-25T08:33:49.240Z,46.40
2023-05-25T08:36:16.008Z,46.80
2023-05-25T08:38:43.025Z,46.80
2023-05-25T08:41:13.090Z,45.80
2023-05-25T08:43:41.994Z,45.40
2023-05-25T08:46:09.581Z,45.10
2023-05-25T08:48:41.614Z,45.70
2023-05-25T08:51:10.977Z,46.10
2023-05-25T08:53:40.549Z,46.00
2023-05-25T08:56:13.934Z,45.40
2023-05-25T08:58:46.256Z,45.80
2023-05-25T09:01:17.576Z,45.50
2023-05-25T09:03:44.892Z,45.50
2023-05-25T09:06:11.844Z,45.00
2023-05-25T09:08:38.862Z,45.10
2023-05-25T09:11:07.698Z,45.20
2023-05-25T09:13:36.964Z,45.00
2023-05-25T09:16:04.233Z,44.80
2023-05-25T09:18:31.036Z,44.70
2023-05-25T09:20:58.173Z,43.90
2023-05-25T09:23:25.184Z,44.30
2023-05-25T09:25:53.546Z,44.50
2023-05-25T09:30:52.140Z,43.60
2023-05-25T09:33:19.719Z,43.20
2023-05-25T09:35:46.740Z,43.80
2023-05-25T09:38:14.757Z,44.20
2023-05-25T09:40:41.839Z,44.50
2023-05-25T09:43:08.788Z,44.30
2023-05-25T09:45:37.928Z,43.60
2023-05-25T09:48:06.706Z,43.40
2023-05-25T09:50:33.590Z,44.00
2023-05-25T09:53:01.048Z,42.30
2023-05-25T09:55:36.566Z,42.90
2023-05-25T09:58:11.258Z,42.50
2023-05-25T10:00:38.129Z,42.80
2023-05-25T10:03:06.259Z,41.90
2023-05-25T10:05:32.984Z,42.10
2023-05-25T10:08:01.734Z,41.40
2023-05-25T10:10:29.375Z,41.60
2023-05-25T10:12:57.016Z,41.90
2023-05-25T10:15:23.997Z,41.00
2023-05-25T10:17:53.960Z,41.60
2023-05-25T10:20:23.321Z,41.50
2023-05-25T10:22:57.042Z,42.20
2023-05-25T10:25:26.674Z,41.70
2023-05-25T10:27:59.522Z,41.00
2023-05-25T10:30:26.946Z,40.50
2023-05-25T10:32:55.107Z,39.30
2023-05-25T10:35:23.718Z,41.00
2023-05-25T10:37:52.787Z,41.50
2023-05-25T10:40:20.741Z,40.10
2023-05-25T10:42:47.805Z,41.10
2023-05-25T10:45:14.820Z,39.80
2023-05-25T10:47:41.922Z,39.50
2023-05-25T10:50:19.081Z,40.10
2023-05-25T10:52:58.133Z,41.30
2023-05-25T10:55:24.877Z,41.20
2023-05-25T10:58:07.396Z,41.70
2023-05-25T11:00:34.310Z,40.60
2023-05-25T11:03:01.183Z,40.50
2023-05-25T11:05:36.490Z,39.50
2023-05-25T11:08:07.052Z,39.50
2023-05-25T11:10:53.974Z,38.90
2023-05-25T11:13:33.881Z,40.70
2023-05-25T11:16:14.369Z,40.10
2023-05-25T11:18:41.842Z,38.10
2023-05-25T11:21:13.124Z,38.00
2023-05-25T11:23:52.696Z,38.40
2023-05-25T11:26:21.160Z,38.60
2023-05-25T11:28:48.057Z,39.20
2023-05-25T11:31:14.821Z,39.30
2023-05-25T11:33:41.644Z,38.50
2023-05-25T11:36:08.496Z,37.90
2023-05-25T11:38:35.223Z,38.40
2023-05-25T11:41:05.103Z,38.60
2023-05-25T11:43:35.099Z,37.90
2023-05-25T11:46:01.876Z,38.60
2023-05-25T11:48:28.584Z,38.30
2023-05-25T11:51:04.918Z,39.20
2023-05-25T11:53:32.521Z,37.90
2023-05-25T11:56:07.392Z,37.60
2023-05-25T11:58:36.763Z,40.40
2023-05-25T12:01:14.060Z,38.20
2023-05-25T12:03:41.072Z,37.80
2023-05-25T12:06:07.858Z,38.00
2023-05-25T12:08:34.708Z,38.80
2023-05-25T12:11:01.723Z,38.00
2023-05-25T12:13:28.547Z,37.10
2023-05-25T12:15:57.456Z,36.50
2023-05-25T12:18:24.330Z,37.00
2023-05-25T12:20:51.411Z,37.30
2023-05-25T12:23:18.433Z,37.50
2023-05-25T12:25:50.853Z,36.60
2023-05-25T12:28:18.113Z,37.00
2023-05-25T12:30:44.929Z,36.70
2023-05-25T12:33:13.646Z,38.90
2023-05-25T12:35:47.693Z,36.50
2023-05-25T12:38:16.405Z,36.90
2023-05-25T12:40:43.722Z,35.60
2023-05-25T12:43:11.621Z,36.60
2023-05-25T12:45:40.060Z,36.20
2023-05-25T12:48:06.948Z,35.90
2023-05-25T12:50:35.046Z,36.30
2023-05-25T12:53:02.769Z,35.60
2023-05-25T12:55:30.516Z,34.80
2023-05-25T12:57:58.655Z,36.30
2023-05-25T13:00:27.607Z,35.00
2023-05-25T13:02:54.856Z,34.30
2023-05-25T13:05:23.469Z,34.30
2023-05-25T13:07:52.038Z,33.90
2023-05-25T13:10:19.075Z,33.10
2023-05-25T13:12:46.048Z,32.80
2023-05-25T13:15:14.564Z,33.20
2023-05-25T13:17:41.847Z,34.80
2023-05-25T13:20:09.274Z,32.30
2023-05-25T13:22:36.080Z,33.10
2023-05-25T13:25:04.982Z,32.70
2023-05-25T13:27:31.677Z,35.50
2023-05-25T13:29:58.369Z,35.50
2023-05-25T13:32:25.140Z,35.10
2023-05-25T13:34:51.875Z,33.80
2023-05-25T13:37:18.595Z,34.00
2023-05-25T13:39:45.439Z,34.70
2023-05-25T13:42:13.463Z,34.70
2023-05-25T13:44:40.225Z,36.10
2023-05-25T13:47:07.081Z,33.50
2023-05-25T13:49:33.789Z,34.40
2023-05-25T13:52:00.525Z,31.30
2023-05-25T13:54:27.230Z,32.20
2023-05-25T13:56:54.013Z,35.00
2023-05-25T13:59:22.058Z,33.20
2023-05-25T14:01:49.352Z,31.10
2023-05-25T14:04:16.406Z,32.70
2023-05-25T14:06:43.524Z,33.00
2023-05-25T14:09:12.119Z,33.00
2023-05-25T14:11:39.836Z,31.50
2023-05-25T14:14:07.881Z,32.20
2023-05-25T14:16:38.022Z,32.50
2023-05-25T14:19:05.232Z,32.30
2023-05-25T14:21:32.133Z,32.60
2023-05-25T14:23:59.447Z,32.30
2023-05-25T14:26:26.407Z,31.80
2023-05-25T14:28:53.190Z,31.40
2023-05-25T14:31:20.363Z,32.80
2023-05-25T14:33:48.442Z,31.80
2023-05-25T14:36:15.168Z,30.20
2023-05-25T14:38:41.881Z,31.30
2023-05-25T14:41:08.630Z,31.00
2023-05-25T14:43:35.327Z,31.00
2023-05-25T14:46:02.105Z,30.80
2023-05-25T14:48:28.925Z,31.00
2023-05-25T14:50:57.126Z,30.60
2023-05-25T14:53:23.900Z,30.80
2023-05-25T14:55:50.682Z,30.30
2023-05-25T14:58:17.377Z,30.20
2023-05-25T15:00:44.121Z,30.70
2023-05-25T15:03:10.963Z,31.00
2023-05-25T15:05:38.005Z,31.60
2023-05-25T15:08:06.127Z,31.80
2023-05-25T15:10:32.823Z,31.90
2023-05-25T15:12:59.520Z,32.30
2023-05-25T15:15:26.255Z,32.10
2023-05-25T15:17:53.002Z,32.60
2023-05-25T15:20:19.868Z,32.50
2023-05-25T15:22:46.563Z,32.60
2023-05-25T15:25:18.977Z,31.90
2023-05-25T15:27:51.543Z,31.60
2023-05-25T15:30:18.703Z,31.60
2023-05-25T15:32:45.437Z,31.40
2023-05-25T15:35:12.172Z,31.70
2023-05-25T15:37:38.888Z,31.90
2023-05-25T15:40:06.668Z,32.30
2023-05-25T15:42:34.707Z,32.00
2023-05-25T15:45:01.433Z,31.40
2023-05-25T15:47:28.192Z,33.10
2023-05-25T15:49:56.039Z,33.00
2023-05-25T15:52:22.841Z,32.10
2023-05-25T15:54:50.182Z,31.40
2023-05-25T15:57:16.885Z,32.10
2023-05-25T15:59:44.928Z,32.90
2023-05-25T16:02:11.672Z,32.60
2023-05-25T16:04:38.403Z,32.00
2023-05-25T16:07:05.492Z,32.20
2023-05-25T16:09:32.236Z,31.60
2023-05-25T16:11:59.110Z,31.70
2023-05-25T16:14:25.906Z,32.30
2023-05-25T16:16:54.059Z,31.90
2023-05-25T16:19:20.819Z,32.50
2023-05-25T16:21:47.539Z,32.60
2023-05-25T16:24:14.430Z,33.20
2023-05-25T16:26:41.169Z,32.40
2023-05-25T16:29:08.006Z,32.50
2023-05-25T16:31:34.795Z,31.60
2023-05-25T16:34:03.002Z,31.50
2023-05-25T16:36:29.694Z,30.80
2023-05-25T16:38:56.365Z,31.20
2023-05-25T16:41:23.103Z,32.00
2023-05-25T16:43:49.874Z,32.10
2023-05-25T16:46:16.651Z,32.20
2023-05-25T16:48:43.381Z,32.50
2023-05-25T16:51:11.403Z,32.90
2023-05-25T16:53:38.120Z,32.30
2023-05-25T16:56:05.364Z,32.40
2023-05-25T16:58:32.092Z,31.90
2023-05-25T17:00:58.874Z,32.70
2023-05-25T17:03:25.721Z,32.20
2023-05-25T17:05:53.868Z,32.00
2023-05-25T17:08:22.096Z,31.40
2023-05-25T17:10:49.348Z,32.00
2023-05-25T17:13:16.205Z,32.40
2023-05-25T17:15:43.269Z,32.60
2023-05-25T17:18:10.273Z,32.00
2023-05-25T17:20:37.056Z,32.90
2023-05-25T17:23:03.823Z,32.60
2023-05-25T17:25:33.983Z,32.40
2023-05-25T17:28:00.916Z,32.10
2023-05-25T17:30:27.595Z,32.90
2023-05-25T17:32:54.350Z,32.20
2023-05-25T17:35:21.204Z,33.00
2023-05-25T17:37:47.879Z,33.10
2023-05-25T17:40:14.834Z,33.10
2023-05-25T17:42:42.859Z,32.40
2023-05-25T17:45:10.638Z,32.10
2023-05-25T17:47:37.411Z,32.90
2023-05-25T17:50:05.095Z,32.90
2023-05-25T17:52:31.828Z,33.00
2023-05-25T17:54:58.556Z,33.10
2023-05-25T17:57:25.307Z,33.10
2023-05-25T17:59:53.332Z,32.70
2023-05-25T18:02:20.166Z,32.70
2023-05-25T18:04:46.910Z,32.60
2023-05-25T18:07:13.791Z,32.60
2023-05-25T18:09:40.477Z,32.90
2023-05-25T18:12:07.675Z,33.70
2023-05-25T18:14:34.438Z,33.60
2023-05-25T18:17:02.607Z,33.20
2023-05-25T18:19:29.341Z,33.80
2023-05-25T18:21:56.083Z,33.40
2023-05-25T18:24:22.909Z,33.30
2023-05-25T18:26:49.609Z,33.30
2023-05-25T18:29:16.283Z,33.60
2023-05-25T18:31:43.134Z,34.10
2023-05-25T18:34:11.304Z,34.60
2023-05-25T18:36:38.040Z,34.80
2023-05-25T18:39:04.777Z,34.60
2023-05-25T18:41:31.640Z,34.80
2023-05-25T18:43:58.399Z,34.90
2023-05-25T18:46:25.462Z,35.10
2023-05-25T18:48:52.160Z,34.90
2023-05-25T18:51:20.357Z,34.60
2023-05-25T18:53:47.072Z,35.10
2023-05-25T18:56:13.802Z,34.90
2023-05-25T18:58:40.489Z,35.40
2023-05-25T19:01:07.227Z,35.60
2023-05-25T19:03:34.105Z,36.00
2023-05-25T19:06:00.988Z,35.90
2023-05-25T19:08:29.047Z,36.00
2023-05-25T19:10:55.731Z,35.80
2023-05-25T19:13:22.454Z,36.00
2023-05-25T19:15:49.366Z,36.20
2023-05-25T19:18:16.208Z,36.40
2023-05-25T19:20:43.126Z,36.40
2023-05-25T19:23:09.925Z,36.70
2023-05-25T19:25:37.952Z,36.90
2023-05-25T19:28:04.748Z,37.00
2023-05-25T19:30:31.542Z,37.30
2023-05-25T19:32:58.286Z,37.40
2023-05-25T19:35:25.038Z,37.60
2023-05-25T19:37:51.808Z,37.80
2023-05-25T19:40:19.243Z,38.00
2023-05-25T19:42:47.374Z,38.00
2023-05-25T19:45:14.123Z,38.10
2023-05-25T19:47:40.871Z,38.20
2023-05-25T19:50:08.104Z,38.30
2023-05-25T19:52:34.898Z,38.40
2023-05-25T19:55:01.633Z,38.50
2023-05-25T19:57:28.350Z,38.60
2023-05-25T19:59:56.505Z,38.80
2023-05-25T20:02:23.295Z,38.80
2023-05-25T20:04:50.104Z,39.10
2023-05-25T20:07:16.930Z,39.10
2023-05-25T20:09:43.820Z,39.20
2023-05-25T20:12:10.611Z,39.30
2023-05-25T20:14:37.493Z,39.30
2023-05-25T20:17:05.632Z,39.50
2023-05-25T20:19:32.416Z,39.40
2023-05-25T20:21:59.147Z,39.60
2023-05-25T20:24:27.102Z,39.70
2023-05-25T20:26:53.808Z,39.70
2023-05-25T20:29:20.549Z,40.70
2023-05-25T20:31:47.303Z,40.00
2023-05-25T20:34:15.425Z,40.00
2023-05-25T20:36:42.167Z,40.10
2023-05-25T20:39:08.924Z,40.20
2023-05-25T20:41:36.896Z,40.30
2023-05-25T20:44:03.631Z,40.30
2023-05-25T20:46:30.392Z,40.40
2023-05-25T20:48:57.186Z,40.40
2023-05-25T20:51:25.356Z,40.60
2023-05-25T20:53:52.115Z,40.60
2023-05-25T20:56:18.828Z,40.50
2023-05-25T20:58:45.702Z,40.50
2023-05-25T21:01:12.440Z,40.60
2023-05-25T21:03:39.391Z,40.60
2023-05-25T21:06:06.378Z,40.80
2023-05-25T21:08:34.894Z,40.90
2023-05-25T21:11:01.632Z,40.90
2023-05-25T21:13:28.443Z,40.90
2023-05-25T21:15:55.186Z,40.90
2023-05-25T21:18:22.071Z,41.00
2023-05-25T21:20:49.283Z,41.10
2023-05-25T21:23:16.022Z,41.20
2023-05-25T21:25:44.524Z,41.20
2023-05-25T21:28:11.370Z,41.40
2023-05-25T21:30:38.144Z,41.40
2023-05-25T21:33:05.013Z,41.10
2023-05-25T21:35:31.833Z,41.00
2023-05-25T21:37:58.567Z,41.10
2023-05-25T21:40:25.319Z,41.00
2023-05-25T21:42:53.393Z,41.10
2023-05-25T21:45:20.319Z,41.10
2023-05-25T21:47:47.108Z,41.30
2023-05-25T21:50:13.962Z,41.10
2023-05-25T21:52:40.677Z,41.10
2023-05-25T21:55:08.196Z,41.40
2023-05-25T21:57:34.880Z,41.40
2023-05-25T22:00:03.389Z,41.50
2023-05-25T22:02:30.159Z,41.50
2023-05-25T22:04:56.930Z,41.60
2023-05-25T22:07:23.698Z,41.50
2023-05-25T22:09:50.431Z,41.60
2023-05-25T22:12:17.194Z,41.50
2023-05-25T22:14:43.876Z,41.30
2023-05-25T22:17:11.948Z,41.60
2023-05-25T22:19:38.724Z,41.40
2023-05-25T22:22:05.452Z,41.90
2023-05-25T22:24:32.146Z,41.60
2023-05-25T22:26:58.951Z,41.50
2023-05-25T22:29:25.654Z,41.60
2023-05-25T22:31:52.420Z,41.50
2023-05-25T22:34:20.517Z,41.70
2023-05-25T22:36:47.265Z,41.60
2023-05-25T22:39:14.062Z,41.70
2023-05-25T22:41:41.062Z,42.50
2023-05-25T22:44:07.838Z,42.60
2023-05-25T22:46:34.672Z,42.20
2023-05-25T22:49:01.430Z,41.90
2023-05-25T22:51:29.464Z,42.00
2023-05-25T22:53:56.243Z,41.90
2023-05-25T22:56:22.938Z,42.00
2023-05-25T22:58:49.707Z,42.20
2023-05-25T23:01:16.491Z,42.40
2023-05-25T23:03:43.373Z,42.30
2023-05-25T23:06:10.213Z,42.20
2023-05-25T23:08:38.287Z,41.90
2023-05-25T23:11:05.050Z,42.00
2023-05-25T23:13:31.734Z,42.00
2023-05-25T23:15:58.567Z,42.20
2023-05-25T23:18:25.364Z,42.00
2023-05-25T23:20:52.170Z,42.20
2023-05-25T23:23:18.884Z,42.70
2023-05-25T23:25:47.198Z,42.80
2023-05-25T23:28:14.012Z,42.50
2023-05-25T23:30:40.720Z,42.50
2023-05-25T23:33:07.532Z,42.50
2023-05-25T23:35:34.326Z,42.70
2023-05-25T23:38:01.024Z,42.70
2023-05-25T23:40:27.821Z,42.80
2023-05-25T23:42:55.896Z,42.90
2023-05-25T23:45:22.629Z,43.10
2023-05-25T23:47:49.354Z,42.90
2023-05-25T23:50:16.235Z,42.90
2023-05-25T23:52:44.910Z,42.90
2023-05-25T23:55:12.023Z,43.00
2023-05-25T23:57:38.871Z,42.90
